Time;durP1;ratioP1;P1;durP2;ratioP2;P2;SDS_P1;SDS_P2;PMS_P1;PMS_P2;Temp;Humidity;BMP_temperature;BMP_pressure;BME280_temperature;BME280_humidity;BME280_pressure;Samples;Min_cycle;Max_cycle;Signal;HPM_P1;HPM_P2
2021/07/04 00:02:13;;;;;;;13.90;10.75;;;;;;;17.39;86.05;100507.50;3583827;39;20144;-52
2021/07/04 00:04:40;;;;;;;12.10;10.65;;;;;;;17.28;85.43;100510.13;3584008;39;20374;-53
2021/07/04 00:07:07;;;;;;;12.23;10.95;;;;;;;17.22;86.85;100510.16;3583669;39;20144;-53
2021/07/04 00:09:34;;;;;;;12.40;11.10;;;;;;;17.26;88.99;100504.97;3583249;39;20092;-50
2021/07/04 00:12:01;;;;;;;13.50;11.90;;;;;;;17.18;91.02;100506.72;3583654;39;20088;-52
2021/07/04 00:14:28;;;;;;;12.20;11.00;;;;;;;17.14;91.64;100509.34;3583710;39;20041;-52
2021/07/04 00:16:55;;;;;;;12.77;11.48;;;;;;;17.10;93.27;100508.50;3583542;39;20074;-49
2021/07/04 00:19:22;;;;;;;13.77;12.43;;;;;;;17.10;93.18;100517.97;3583711;39;20064;-54
2021/07/04 00:21:50;;;;;;;12.95;11.82;;;;;;;17.16;93.52;100508.47;3583537;39;20064;-50
2021/07/04 00:24:17;;;;;;;14.02;12.50;;;;;;;17.14;93.13;100514.50;3583454;39;20580;-55
2021/07/04 00:26:44;;;;;;;13.45;12.10;;;;;;;17.13;92.86;100498.13;3583550;39;20041;-56
2021/07/04 00:29:11;;;;;;;12.65;11.18;;;;;;;17.23;91.79;100499.81;3584661;39;20543;-52
2021/07/04 00:31:39;;;;;;;12.48;11.20;;;;;;;17.17;91.56;100506.75;3584935;39;20051;-51
2021/07/04 00:34:06;;;;;;;13.98;11.85;;;;;;;17.24;91.75;100506.72;3585280;39;20083;-52
2021/07/04 00:36:33;;;;;;;12.38;11.18;;;;;;;17.35;90.99;100509.25;3585129;39;20060;-53
2021/07/04 00:39:00;;;;;;;13.88;10.93;;;;;;;17.27;90.54;100500.66;3584754;39;20041;-56
2021/07/04 00:41:27;;;;;;;12.88;11.57;;;;;;;17.28;90.21;100498.06;3584823;39;20084;-51
2021/07/04 00:43:54;;;;;;;13.00;11.63;;;;;;;17.46;90.53;100491.91;3584922;39;20112;-53
2021/07/04 00:46:21;;;;;;;14.43;12.02;;;;;;;17.48;91.84;100494.53;3584936;39;20112;-54
2021/07/04 00:48:48;;;;;;;13.93;11.88;;;;;;;17.40;93.39;100493.69;3585059;39;20322;-52
2021/07/04 00:51:15;;;;;;;12.43;11.13;;;;;;;17.56;93.17;100495.31;3585350;39;20425;-52
2021/07/04 00:53:42;;;;;;;12.82;11.63;;;;;;;17.72;92.60;100499.53;3585026;39;20051;-53
2021/07/04 00:56:09;;;;;;;12.63;11.38;;;;;;;17.37;95.05;100494.56;3584829;39;20048;-55
2021/07/04 00:58:36;;;;;;;13.90;12.50;;;;;;;17.29;96.44;100493.75;3584852;39;20066;-52
2021/07/04 01:01:03;;;;;;;14.95;13.45;;;;;;;17.23;97.20;100493.78;3584700;39;20060;-53
2021/07/04 01:03:30;;;;;;;14.75;12.73;;;;;;;17.17;97.51;100486.91;3585067;39;20104;-55
2021/07/04 01:05:57;;;;;;;15.25;12.93;;;;;;;17.18;97.87;100491.19;3584985;39;20104;-53
2021/07/04 01:08:25;;;;;;;14.48;12.98;;;;;;;17.12;97.80;100483.47;3584742;39;20466;-50
2021/07/04 01:10:52;;;;;;;13.52;12.15;;;;;;;17.40;96.83;100485.94;3585157;39;20150;-51
2021/07/04 01:13:19;;;;;;;14.63;13.10;;;;;;;17.37;96.23;100480.75;3584936;39;20101;-52
2021/07/04 01:15:47;;;;;;;16.33;13.25;;;;;;;17.27;97.26;100490.31;3585298;39;20138;-49
2021/07/04 01:18:14;;;;;;;15.02;13.35;;;;;;;17.16;98.29;100481.75;3585047;39;20186;-54
2021/07/04 01:20:41;;;;;;;16.20;13.90;;;;;;;17.15;98.55;100483.47;3585124;39;20064;-55
2021/07/04 01:23:13;;;;;;;16.55;13.93;;;;;;;17.14;98.77;100478.28;3584880;39;20402;-57
2021/07/04 01:25:52;;;;;;;15.43;13.73;;;;;;;17.18;98.26;100478.25;3584618;39;20438;-55
2021/07/04 01:28:19;;;;;;;17.38;14.07;;;;;;;17.09;98.40;100480.88;3584740;39;20077;-53
2021/07/04 01:30:49;;;;;;;18.00;14.55;;;;;;;17.03;98.47;100473.16;3584977;39;20081;-52
2021/07/04 01:33:17;;;;;;;16.45;13.60;;;;;;;17.02;98.62;100469.72;3584955;39;20060;-52
2021/07/04 01:35:44;;;;;;;14.60;13.13;;;;;;;17.26;98.12;100462.72;3584465;39;20048;-55
2021/07/04 01:38:11;;;;;;;14.80;13.25;;;;;;;17.41;97.29;100472.13;3584551;39;20053;-52
2021/07/04 01:40:38;;;;;;;15.55;13.93;;;;;;;17.23;97.64;100468.75;3584482;39;20331;-54
2021/07/04 01:43:05;;;;;;;15.63;14.13;;;;;;;17.48;97.33;100476.41;3584706;39;20100;-55
2021/07/04 01:45:32;;;;;;;15.20;12.60;;;;;;;17.41;97.82;100464.34;3584728;39;20070;-53
2021/07/04 01:47:59;;;;;;;15.38;13.80;;;;;;;17.39;97.91;100471.28;3584340;39;20080;-52
2021/07/04 01:50:38;;;;;;;15.25;13.23;;;;;;;17.20;98.57;100473.09;3583385;39;20046;-53
2021/07/04 01:53:06;;;;;;;15.55;13.93;;;;;;;16.97;100.00;100468.88;3584714;39;20126;-50
2021/07/04 01:55:33;;;;;;;14.57;13.23;;;;;;;17.11;100.00;100479.19;3584472;39;20109;-57
2021/07/04 01:58:00;;;;;;;17.67;13.38;;;;;;;17.18;99.33;100480.00;3584657;39;20340;-55
2021/07/04 02:00:31;;;;;;;16.20;13.65;;;;;;;17.21;99.85;100474.81;3584544;39;20093;-57
2021/07/04 02:03:01;;;;;;;15.63;13.98;;;;;;;17.26;99.52;100475.66;3584638;39;20198;-54
2021/07/04 02:05:28;;;;;;;15.02;13.52;;;;;;;17.17;99.67;100479.13;3584562;39;20064;-56
2021/07/04 02:07:55;;;;;;;15.15;13.63;;;;;;;17.02;100.00;100476.63;3584153;39;20353;-52
2021/07/04 02:10:28;;;;;;;15.27;13.68;;;;;;;16.87;100.00;100477.56;3584586;39;20620;-52
2021/07/04 02:12:57;;;;;;;16.92;15.23;;;;;;;16.85;100.00;100479.28;3584597;39;20052;-53
2021/07/04 02:15:29;;;;;;;17.00;14.43;;;;;;;16.85;100.00;100468.06;3584453;39;20453;-51
2021/07/04 02:17:57;;;;;;;16.25;14.52;;;;;;;16.96;100.00;100471.47;3584395;39;20322;-54
2021/07/04 02:20:39;;;;;;;15.48;13.57;;;;;;;16.97;100.00;100471.47;3584369;39;20055;-50
2021/07/04 02:23:12;;;;;;;15.15;13.63;;;;;;;16.98;100.00;100477.50;3583206;39;20776;-53
2021/07/04 02:25:41;;;;;;;16.58;14.88;;;;;;;16.86;100.00;100475.81;3584439;39;20055;-52
2021/07/04 02:28:10;;;;;;;15.27;13.45;;;;;;;17.04;100.00;100477.47;3584083;39;20053;-51
2021/07/04 02:30:39;;;;;;;16.08;14.38;;;;;;;16.90;100.00;100477.53;3584483;39;20067;-51
2021/07/04 02:33:08;;;;;;;15.35;13.75;;;;;;;16.85;100.00;100476.69;3584269;39;20060;-53
2021/07/04 02:35:40;;;;;;;15.60;13.35;;;;;;;16.87;100.00;100479.25;3584350;39;20089;-51
2021/07/04 02:38:08;;;;;;;15.27;13.50;;;;;;;16.86;100.00;100478.41;3584442;39;20347;-52
2021/07/04 02:40:37;;;;;;;16.00;14.20;;;;;;;17.07;100.00;100482.63;3584291;39;20093;-54
2021/07/04 02:43:05;;;;;;;14.57;12.98;;;;;;;17.11;100.00;100478.31;3584350;39;20215;-52
2021/07/04 02:45:32;;;;;;;18.52;14.32;;;;;;;17.09;100.00;100474.88;3584337;39;20067;-52
2021/07/04 02:47:59;;;;;;;16.08;13.65;;;;;;;17.01;100.00;100478.34;3584023;39;20078;-51
2021/07/04 02:50:27;;;;;;;15.23;13.73;;;;;;;16.90;100.00;100476.66;3584099;39;20056;-52
2021/07/04 02:52:55;;;;;;;16.00;14.35;;;;;;;16.80;100.00;100478.44;3584284;39;20040;-53
2021/07/04 02:55:23;;;;;;;15.82;13.63;;;;;;;17.25;100.00;100484.28;3584420;39;20100;-53
2021/07/04 02:57:50;;;;;;;16.05;13.68;;;;;;;17.09;100.00;100483.47;3584034;39;20088;-53
2021/07/04 03:00:26;;;;;;;14.60;13.02;;;;;;;16.95;100.00;100477.50;3584454;39;20099;-57
2021/07/04 03:02:53;;;;;;;;;;;;;;;16.79;100.00;100475.00;3584779;39;20085;-52
2021/07/04 03:05:21;;;;;;;16.10;13.10;;;;;;;16.69;100.00;100480.16;3584092;39;19944;-53
2021/07/04 03:07:48;;;;;;;15.85;13.40;;;;;;;16.65;100.00;100479.31;3583936;39;20067;-56
2021/07/04 03:10:18;;;;;;;17.33;15.48;;;;;;;16.60;100.00;100475.88;3584253;39;20060;-53
2021/07/04 03:12:46;;;;;;;15.90;14.18;;;;;;;16.65;100.00;100479.31;3583855;39;20056;-54
2021/07/04 03:15:15;;;;;;;18.48;14.77;;;;;;;16.77;100.00;100475.84;3584170;39;20048;-52
2021/07/04 03:17:42;;;;;;;17.33;13.10;;;;;;;16.86;100.00;100472.38;3584147;39;20081;-55
2021/07/04 03:20:11;;;;;;;14.77;13.15;;;;;;;16.92;100.00;100473.22;3583824;39;20037;-54
2021/07/04 03:22:38;;;;;;;14.68;13.15;;;;;;;17.10;100.00;100479.16;3582923;39;20078;-53
2021/07/04 03:25:08;;;;;;;17.55;13.13;;;;;;;17.16;100.00;100484.34;3584077;39;20091;-55
2021/07/04 03:27:35;;;;;;;13.57;12.10;;;;;;;17.35;100.00;100480.78;3583930;39;20359;-52
2021/07/04 03:30:05;;;;;;;14.40;12.90;;;;;;;17.09;100.00;100483.47;3584206;39;20421;-56
2021/07/04 03:32:32;;;;;;;13.75;12.35;;;;;;;17.06;100.00;100480.94;3583857;39;20132;-54
2021/07/04 03:34:59;;;;;;;16.25;13.65;;;;;;;17.04;100.00;100486.09;3583939;39;20088;-54
2021/07/04 03:37:26;;;;;;;15.85;13.25;;;;;;;17.17;100.00;100488.63;3583937;39;20059;-55
2021/07/04 03:39:54;;;;;;;16.40;13.15;;;;;;;17.09;100.00;100482.63;3583865;39;20095;-48
2021/07/04 03:42:21;;;;;;;14.48;12.95;;;;;;;17.09;100.00;100483.47;3584184;39;20053;-53
2021/07/04 03:44:48;;;;;;;15.00;13.50;;;;;;;17.07;100.00;100480.06;3583915;39;20048;-52
2021/07/04 03:47:15;;;;;;;14.70;13.18;;;;;;;17.09;100.00;100477.44;3583735;39;20064;-54
2021/07/04 03:49:42;;;;;;;15.70;13.02;;;;;;;17.12;100.00;100480.03;3583837;39;20052;-52
2021/07/04 03:52:09;;;;;;;15.27;13.20;;;;;;;17.08;100.00;100480.91;3583870;39;20060;-53
2021/07/04 03:54:36;;;;;;;15.80;13.98;;;;;;;17.12;100.00;100477.44;3584089;39;20060;-51
2021/07/04 03:57:21;;;;;;;15.48;13.80;;;;;;;17.15;100.00;100472.28;3584138;39;20370;-50
2021/07/04 03:59:56;;;;;;;16.23;13.40;;;;;;;17.13;100.00;100477.44;3583921;39;20032;-51
2021/07/04 04:02:24;;;;;;;18.48;13.57;;;;;;;17.13;100.00;100479.16;3583505;39;20088;-54
2021/07/04 04:04:58;;;;;;;17.38;12.57;;;;;;;17.23;100.00;100483.41;3583905;39;20088;-52
2021/07/04 04:07:25;;;;;;;14.93;12.93;;;;;;;17.26;100.00;100473.91;3583475;39;20096;-51
2021/07/04 04:09:53;;;;;;;16.90;13.25;;;;;;;17.26;100.00;100470.47;3583534;39;20065;-52
2021/07/04 04:12:20;;;;;;;14.60;13.00;;;;;;;17.53;100.00;100472.03;3583677;39;20131;-51
2021/07/04 04:14:47;;;;;;;16.38;14.18;;;;;;;17.39;100.00;100474.72;3583748;39;20072;-50
2021/07/04 04:17:14;;;;;;;15.48;13.32;;;;;;;17.43;100.00;100475.56;3583739;39;20052;-55
2021/07/04 04:19:42;;;;;;;14.48;12.95;;;;;;;17.28;100.00;100479.06;3583520;39;20057;-52
2021/07/04 04:22:09;;;;;;;16.00;13.45;;;;;;;17.26;100.00;100480.81;3583721;39;20092;-52
2021/07/04 04:24:36;;;;;;;16.40;13.63;;;;;;;17.15;100.00;100480.88;3583459;39;20131;-55
2021/07/04 04:27:03;;;;;;;15.10;13.50;;;;;;;17.16;100.00;100474.84;3583465;39;20122;-53
2021/07/04 04:29:30;;;;;;;15.85;14.15;;;;;;;17.14;100.00;100483.47;3583325;39;20081;-56
2021/07/04 04:31:57;;;;;;;18.00;14.13;;;;;;;17.26;100.00;100486.84;3583415;39;20071;-52
2021/07/04 04:34:25;;;;;;;17.00;14.00;;;;;;;17.45;100.00;100484.16;3583607;39;20061;-52
2021/07/04 04:36:52;;;;;;;16.73;15.00;;;;;;;17.29;100.00;100488.59;3583420;39;20061;-53
2021/07/04 04:39:20;;;;;;;16.17;14.32;;;;;;;17.27;100.00;100492.88;3584163;39;20104;-56
2021/07/04 04:41:49;;;;;;;17.17;15.45;;;;;;;17.28;100.00;100494.59;3585874;39;20103;-58
2021/07/04 04:44:31;;;;;;;17.25;14.63;;;;;;;17.30;100.00;100493.75;3584816;39;20048;-54
2021/07/04 04:46:58;;;;;;;16.92;15.05;;;;;;;17.27;100.00;100487.72;3583505;39;20064;-52
2021/07/04 04:49:26;;;;;;;18.85;14.27;;;;;;;17.26;100.00;100491.19;3583024;39;20287;-52
2021/07/04 04:51:53;;;;;;;17.38;14.48;;;;;;;17.18;100.00;100483.44;3583415;39;20081;-53
2021/07/04 04:54:20;;;;;;;16.92;14.07;;;;;;;17.14;100.00;100486.91;3583333;39;20053;-53
2021/07/04 04:56:47;;;;;;;16.38;14.68;;;;;;;17.15;100.00;100486.06;3583458;39;20168;-52
2021/07/04 04:59:14;;;;;;;23.90;15.57;;;;;;;17.19;100.00;100486.88;3583337;39;20080;-49
2021/07/04 05:01:41;;;;;;;17.30;14.57;;;;;;;17.16;100.00;100482.59;3583156;39;20512;-53
2021/07/04 05:04:09;;;;;;;18.15;15.02;;;;;;;17.18;100.00;100491.19;3582904;39;20086;-51
2021/07/04 05:06:36;;;;;;;16.30;14.52;;;;;;;17.22;100.00;100486.88;3583161;39;20495;-58
2021/07/04 05:09:04;;;;;;;19.05;14.85;;;;;;;17.24;100.00;100487.72;3583160;39;20037;-50
2021/07/04 05:11:31;;;;;;;18.38;15.05;;;;;;;17.23;100.00;100491.19;3583448;39;20321;-56
2021/07/04 05:13:58;;;;;;;20.52;14.32;;;;;;;17.23;100.00;100486.88;3583548;39;20063;-54
2021/07/04 05:16:25;;;;;;;18.02;14.18;;;;;;;17.29;100.00;100486.84;3584661;39;20052;-54
2021/07/04 05:18:53;;;;;;;15.90;13.52;;;;;;;17.78;100.00;100490.88;3585241;39;20384;-51
2021/07/04 05:21:20;;;;;;;19.55;13.52;;;;;;;17.57;100.00;100486.69;3585347;39;20057;-55
2021/07/04 05:23:47;;;;;;;20.05;14.35;;;;;;;17.90;99.47;100490.81;3585267;39;20088;-57
2021/07/04 05:26:18;;;;;;;16.58;12.90;;;;;;;18.06;97.97;100491.53;3584913;39;20084;-53
2021/07/04 05:28:46;;;;;;;14.75;12.63;;;;;;;18.03;98.32;100494.19;3584903;39;20076;-50
2021/07/04 05:31:13;;;;;;;13.55;12.13;;;;;;;18.51;94.31;100492.84;3584715;39;20075;-49
2021/07/04 05:33:40;;;;;;;14.20;11.80;;;;;;;18.62;94.88;100490.13;3584845;39;20337;-54
2021/07/04 05:36:07;;;;;;;20.75;13.13;;;;;;;18.71;96.09;100500.44;3584729;39;20342;-55
2021/07/04 05:38:35;;;;;;;24.88;15.15;;;;;;;19.01;95.57;100501.00;3584567;39;20104;-52
2021/07/04 05:41:03;;;;;;;30.65;15.63;;;;;;;19.24;95.27;100496.38;3584604;39;20056;-51
2021/07/04 05:43:30;;;;;;;14.80;11.75;;;;;;;19.51;92.16;100497.75;3584656;39;20396;-54
2021/07/04 05:45:59;;;;;;;13.82;11.77;;;;;;;19.55;89.47;100499.41;3584386;39;20103;-53
2021/07/04 05:48:27;;;;;;;20.67;12.55;;;;;;;19.87;89.97;100502.44;3584206;39;20060;-53
2021/07/04 05:50:55;;;;;;;16.85;12.63;;;;;;;19.87;90.73;100503.28;3584467;39;20059;-52
2021/07/04 05:53:23;;;;;;;13.00;11.27;;;;;;;19.77;85.80;100499.97;3584575;39;20060;-50
2021/07/04 05:55:50;;;;;;;16.25;11.63;;;;;;;19.81;87.99;100503.38;3584405;39;20426;-51
2021/07/04 05:58:17;;;;;;;13.02;11.70;;;;;;;20.13;89.19;100500.28;3584529;39;20081;-57
2021/07/04 06:00:44;;;;;;;13.65;12.27;;;;;;;20.38;88.18;100512.84;3584439;39;20092;-56
2021/07/04 06:03:11;;;;;;;15.88;11.48;;;;;;;20.13;87.29;100499.44;3584122;39;20061;-53
2021/07/04 06:05:39;;;;;;;15.95;12.20;;;;;;;20.07;88.36;100508.19;3584636;39;20112;-52
2021/07/04 06:08:06;;;;;;;14.45;12.85;;;;;;;20.08;90.08;100510.75;3584597;39;20093;-53
2021/07/04 06:10:34;;;;;;;14.43;12.43;;;;;;;20.17;86.47;100507.16;3584295;39;20037;-52
2021/07/04 06:13:02;;;;;;;13.45;12.05;;;;;;;20.07;87.86;100506.44;3584616;39;20345;-54
2021/07/04 06:15:29;;;;;;;14.15;11.68;;;;;;;20.32;86.09;100504.28;3584311;39;20041;-53
2021/07/04 06:17:56;;;;;;;12.43;11.13;;;;;;;20.31;86.11;100501.72;3584262;39;20504;-56
2021/07/04 06:20:23;;;;;;;12.98;11.07;;;;;;;20.65;84.96;100509.78;3584230;39;20057;-53
2021/07/04 06:22:54;;;;;;;12.60;11.30;;;;;;;20.47;84.81;100508.38;3584345;39;20060;-54
2021/07/04 06:25:22;;;;;;;14.77;11.30;;;;;;;20.41;85.52;100508.47;3583915;39;20060;-53
2021/07/04 06:27:50;;;;;;;13.50;11.88;;;;;;;20.31;85.00;100509.50;3584234;39;20072;-51
2021/07/04 06:30:18;;;;;;;12.85;11.55;;;;;;;20.45;83.31;100509.28;3584653;39;20060;-51
2021/07/04 06:32:45;;;;;;;11.98;10.85;;;;;;;20.45;80.08;100506.66;3584508;39;20450;-54
2021/07/04 06:35:15;;;;;;;13.60;10.57;;;;;;;20.41;81.69;100510.22;3583945;39;20272;-53
2021/07/04 06:37:42;;;;;;;12.60;11.40;;;;;;;20.45;84.56;100507.53;3584309;39;20060;-49
2021/07/04 06:40:10;;;;;;;12.70;11.32;;;;;;;20.52;83.88;100503.97;3584411;39;20123;-52
2021/07/04 06:42:37;;;;;;;13.45;10.50;;;;;;;20.76;80.23;100507.84;3584126;39;20084;-53
2021/07/04 06:45:09;;;;;;;12.15;10.55;;;;;;;20.77;80.89;100504.38;3584075;39;20057;-50
2021/07/04 06:47:38;;;;;;;13.90;10.48;;;;;;;21.12;79.58;100502.78;3584124;39;20052;-51
2021/07/04 06:50:06;;;;;;;11.32;9.98;;;;;;;20.81;78.36;100498.22;3584236;39;20054;-52
2021/07/04 06:52:34;;;;;;;12.60;10.60;;;;;;;20.82;80.36;100496.47;3584100;39;20085;-54
2021/07/04 06:55:03;;;;;;;12.70;10.68;;;;;;;20.99;82.56;100494.38;3584235;39;20311;-54
2021/07/04 06:57:30;;;;;;;13.00;11.30;;;;;;;21.41;83.75;100490.94;3583987;39;20060;-50
2021/07/04 07:00:04;;;;;;;13.05;11.68;;;;;;;21.80;81.25;100495.22;3583795;39;20458;-55
2021/07/04 07:02:31;;;;;;;11.60;10.60;;;;;;;21.57;76.98;100490.53;3584027;39;20068;-55
2021/07/04 07:04:58;;;;;;;14.30;11.15;;;;;;;21.27;81.25;100499.03;3584008;39;20111;-53
2021/07/04 07:07:25;;;;;;;15.80;11.23;;;;;;;21.40;82.76;100487.47;3583226;39;20496;-53
2021/07/04 07:09:52;;;;;;;12.32;11.20;;;;;;;21.45;83.51;100487.38;3583718;39;20060;-55
2021/07/04 07:12:20;;;;;;;11.65;9.55;;;;;;;21.45;82.77;100485.63;3583814;39;20089;-58
2021/07/04 07:14:47;;;;;;;11.73;10.63;;;;;;;21.14;82.11;100487.16;3583996;39;20056;-51
2021/07/04 07:17:14;;;;;;;11.80;10.52;;;;;;;21.38;78.03;100480.56;3583740;39;20056;-53
2021/07/04 07:19:41;;;;;;;10.55;9.43;;;;;;;21.96;75.34;100487.91;3583731;39;20153;-54
2021/07/04 07:22:08;;;;;;;10.35;9.25;;;;;;;22.26;71.26;100483.69;3583790;39;20085;-52
2021/07/04 07:24:35;;;;;;;9.50;8.45;;;;;;;22.01;69.56;100486.03;3583849;39;20072;-51
2021/07/04 07:27:03;;;;;;;10.48;8.63;;;;;;;22.28;69.99;100483.66;3583762;39;20088;-52
2021/07/04 07:29:30;;;;;;;8.80;7.88;;;;;;;22.37;69.73;100478.22;3583287;39;20240;-51
2021/07/04 07:31:58;;;;;;;9.13;8.23;;;;;;;22.69;72.54;100472.09;3583458;39;20084;-51
2021/07/04 07:34:26;;;;;;;9.80;7.72;;;;;;;22.72;69.04;100476.38;3583901;39;20489;-55
2021/07/04 07:36:53;;;;;;;9.20;8.38;;;;;;;22.76;66.88;100472.78;3583330;39;20472;-53
2021/07/04 07:39:20;;;;;;;9.25;8.10;;;;;;;22.68;65.98;100470.38;3583528;39;20434;-56
2021/07/04 07:41:47;;;;;;;10.02;6.80;;;;;;;23.03;64.23;100482.47;3583691;39;20056;-54
2021/07/04 07:44:15;;;;;;;7.75;6.93;;;;;;;23.09;65.65;100473.59;3583598;39;20059;-51
2021/07/04 07:46:42;;;;;;;10.20;9.15;;;;;;;23.32;66.71;100471.16;3583894;39;20040;-54
2021/07/04 07:49:09;;;;;;;9.00;8.10;;;;;;;23.30;64.22;100472.97;3583728;39;21700;-53
2021/07/04 07:51:36;;;;;;;12.07;8.98;;;;;;;23.28;66.75;100469.53;3583604;39;20075;-55
2021/07/04 07:54:05;;;;;;;9.27;8.27;;;;;;;23.34;65.54;100474.59;3583494;39;20064;-52
2021/07/04 07:56:32;;;;;;;8.90;8.10;;;;;;;23.37;67.67;100474.47;3583734;39;20084;-54
2021/07/04 07:58:59;;;;;;;12.10;8.68;;;;;;;23.06;65.71;100468.47;3583455;39;20080;-52
2021/07/04 08:01:26;;;;;;;9.23;8.32;;;;;;;23.13;64.96;100473.47;3583661;39;20342;-53
2021/07/04 08:03:53;;;;;;;10.43;9.43;;;;;;;23.44;64.86;100466.47;3583826;39;20057;-51
2021/07/04 08:06:20;;;;;;;9.38;8.48;;;;;;;23.92;64.05;100465.81;3583437;39;20066;-53
2021/07/04 08:08:47;;;;;;;8.90;8.00;;;;;;;23.37;65.67;100463.19;3583532;39;20521;-57
2021/07/04 08:11:14;;;;;;;8.57;7.50;;;;;;;23.68;61.46;100457.03;3583292;39;20107;-54
2021/07/04 08:13:41;;;;;;;8.35;7.45;;;;;;;24.11;60.39;100462.53;3583117;39;20153;-52
2021/07/04 08:16:09;;;;;;;9.10;8.27;;;;;;;24.54;61.49;100455.84;3583466;39;20425;-51
2021/07/04 08:18:36;;;;;;;6.90;6.28;;;;;;;24.48;59.59;100460.44;3583456;39;20060;-57
2021/07/04 08:21:03;;;;;;;6.93;6.32;;;;;;;24.21;58.25;100459.59;3583463;39;20079;-51
2021/07/04 08:23:30;;;;;;;10.15;7.00;;;;;;;24.10;58.97;100452.97;3582528;39;20068;-53
2021/07/04 08:25:57;;;;;;;12.75;6.93;;;;;;;24.56;57.40;100461.88;3583506;39;20438;-56
2021/07/04 08:28:24;;;;;;;9.25;7.25;;;;;;;24.83;60.03;100456.56;3583201;39;20234;-55
2021/07/04 08:30:51;;;;;;;8.07;7.38;;;;;;;24.75;59.22;100459.44;3583604;39;20414;-51
2021/07/04 08:33:18;;;;;;;6.72;6.13;;;;;;;25.19;58.47;100456.09;3583779;39;20115;-56
2021/07/04 08:35:45;;;;;;;7.00;6.30;;;;;;;25.73;57.33;100454.81;3583412;39;20084;-53
2021/07/04 08:38:12;;;;;;;6.47;5.80;;;;;;;25.73;52.04;100457.44;3583385;39;20112;-56
2021/07/04 08:40:39;;;;;;;6.05;5.47;;;;;;;25.68;52.37;100455.00;3583103;39;20082;-51
2021/07/04 08:43:06;;;;;;;6.95;6.03;;;;;;;25.39;53.70;100449.16;3583121;39;20076;-52
2021/07/04 08:45:38;;;;;;;5.65;5.07;;;;;;;25.72;51.67;100451.34;3583324;39;20048;-53
2021/07/04 08:48:06;;;;;;;6.43;5.20;;;;;;;26.01;50.00;100444.06;3583105;39;20085;-51
2021/07/04 08:50:34;;;;;;;4.93;4.47;;;;;;;25.26;48.44;100447.94;3584750;39;20097;-55
2021/07/04 08:53:01;;;;;;;5.43;4.53;;;;;;;25.49;51.60;100439.16;3584927;39;20178;-55
2021/07/04 08:55:28;;;;;;;6.18;5.25;;;;;;;25.47;51.59;100433.16;3584624;39;20119;-52
2021/07/04 08:57:57;;;;;;;5.22;4.53;;;;;;;25.51;50.60;100433.84;3584814;39;20076;-55
2021/07/04 09:00:26;;;;;;;5.57;4.80;;;;;;;25.32;53.57;100431.97;3584112;39;20079;-52
2021/07/04 09:02:54;;;;;;;5.82;5.28;;;;;;;25.14;52.05;100424.81;3583759;39;20080;-53
2021/07/04 09:05:21;;;;;;;6.75;5.82;;;;;;;25.21;52.80;100430.69;3583607;39;20088;-51
2021/07/04 09:07:50;;;;;;;7.32;5.75;;;;;;;25.34;52.55;100426.69;3582229;40;20063;-51
2021/07/04 09:10:21;;;;;;;5.30;4.88;;;;;;;25.74;52.26;100428.50;3583421;39;20100;-53
2021/07/04 09:12:51;;;;;;;6.25;5.60;;;;;;;26.29;49.17;100427.97;3584024;39;20074;-54
2021/07/04 09:15:25;;;;;;;5.85;5.35;;;;;;;25.54;50.23;100429.34;3584214;39;20114;-55
2021/07/04 09:17:57;;;;;;;6.38;5.78;;;;;;;25.79;49.43;100425.72;3584127;39;20044;-51
2021/07/04 09:20:29;;;;;;;8.30;5.97;;;;;;;25.73;51.07;100431.22;3584342;39;20104;-56
2021/07/04 09:22:58;;;;;;;5.97;5.47;;;;;;;25.75;50.71;100425.00;3584038;39;20060;-53
2021/07/04 09:25:28;;;;;;;6.13;5.57;;;;;;;25.85;48.76;100425.50;3584552;39;20127;-52
2021/07/04 09:28:10;;;;;;;7.75;6.10;;;;;;;26.33;49.82;100416.44;3584438;39;20084;-54
2021/07/04 09:30:40;;;;;;;6.65;6.05;;;;;;;27.53;48.02;100431.03;3584567;39;20068;-54
2021/07/04 09:33:16;;;;;;;6.43;5.72;;;;;;;28.13;46.31;100420.19;3584628;39;20099;-54
2021/07/04 09:35:54;;;;;;;8.05;6.22;;;;;;;27.88;49.71;100416.16;3584350;39;20091;-53
2021/07/04 09:38:22;;;;;;;6.47;5.88;;;;;;;27.32;45.18;100418.94;3584577;39;20055;-58
2021/07/04 09:40:50;;;;;;;5.80;5.30;;;;;;;27.86;46.08;100414.53;3584640;39;20088;-49
2021/07/04 09:43:19;;;;;;;4.97;4.57;;;;;;;28.99;44.70;100416.50;3584456;39;20084;-54
2021/07/04 09:45:47;;;;;;;7.72;5.15;;;;;;;28.46;43.83;100409.69;3584502;39;20080;-54
2021/07/04 09:48:36;;;;;;;6.50;5.28;;;;;;;28.70;42.75;100407.50;3584521;39;20092;-55
2021/07/04 09:51:15;;;;;;;7.93;5.65;;;;;;;26.73;44.65;100407.66;3584461;39;20084;-58
2021/07/04 09:53:57;;;;;;;7.82;5.47;;;;;;;27.35;44.77;100403.84;3584587;39;20096;-51
2021/07/04 09:56:25;;;;;;;6.63;5.93;;;;;;;27.18;43.85;100398.56;3584474;39;20064;-52
2021/07/04 09:58:57;;;;;;;5.60;5.10;;;;;;;27.99;42.50;100402.47;3584172;39;20436;-53
2021/07/04 10:01:46;;;;;;;6.05;4.80;;;;;;;28.35;38.92;100401.50;3584258;39;20394;-49
2021/07/04 10:04:38;;;;;;;6.82;5.07;;;;;;;28.79;37.98;100399.09;3584980;39;20068;-51
2021/07/04 10:07:05;;;;;;;5.43;4.97;;;;;;;29.11;38.15;100397.34;3585262;39;20415;-47
2021/07/04 10:09:33;;;;;;;5.28;4.80;;;;;;;29.72;41.40;100398.31;3584604;39;20111;-49
2021/07/04 10:12:01;;;;;;;5.90;4.93;;;;;;;31.30;39.19;100400.00;3585000;39;20351;-49
2021/07/04 10:14:28;;;;;;;5.75;4.75;;;;;;;29.96;36.56;100397.78;3584162;39;20056;-50
2021/07/04 10:16:56;;;;;;;6.30;5.40;;;;;;;29.60;36.19;100386.66;3584414;39;20082;-50
2021/07/04 10:19:25;;;;;;;5.65;4.93;;;;;;;30.71;35.56;100396.72;3584314;39;20068;-49
2021/07/04 10:21:58;;;;;;;5.28;4.88;;;;;;;31.07;34.03;100392.69;3584103;39;20089;-47
2021/07/04 10:24:25;;;;;;;8.45;5.22;;;;;;;29.77;37.81;100382.19;3584021;39;20266;-45
2021/07/04 10:26:55;;;;;;;4.88;4.47;;;;;;;29.59;37.16;100384.97;3584164;39;20076;-50
2021/07/04 10:29:25;;;;;;;7.78;4.85;;;;;;;30.32;35.97;100385.03;3583866;39;20044;-50
2021/07/04 10:31:52;;;;;;;4.90;4.50;;;;;;;31.39;34.96;100387.97;3584408;39;20103;-46
2021/07/04 10:34:25;;;;;;;5.13;4.63;;;;;;;31.24;34.48;100386.28;3584376;39;20092;-53
2021/07/04 10:37:02;;;;;;;5.57;5.03;;;;;;;31.52;35.85;100380.03;3584348;39;20067;-51
2021/07/04 10:39:34;;;;;;;5.80;5.07;;;;;;;30.09;36.39;100370.56;3584001;39;20065;-46
2021/07/04 10:42:05;;;;;;;4.90;4.50;;;;;;;30.58;35.70;100367.53;3584041;39;20056;-45
2021/07/04 10:44:43;;;;;;;6.07;4.47;;;;;;;29.34;36.55;100367.03;3584283;39;20067;-49
2021/07/04 10:47:13;;;;;;;5.93;5.35;;;;;;;31.22;37.66;100361.75;3584151;39;20096;-48
2021/07/04 10:49:43;;;;;;;5.47;4.85;;;;;;;30.33;38.49;100362.94;3584083;39;20063;-51
2021/07/04 10:52:17;;;;;;;4.97;4.50;;;;;;;30.90;35.93;100364.69;3584214;39;20056;-49
2021/07/04 10:54:47;;;;;;;6.18;4.75;;;;;;;30.99;35.19;100363.25;3584286;39;20145;-45
2021/07/04 10:57:16;;;;;;;6.70;4.80;;;;;;;31.04;35.55;100363.78;3583934;39;20057;-48
2021/07/04 10:59:58;;;;;;;6.55;5.28;;;;;;;31.03;35.41;100360.28;3583818;39;20115;-47
2021/07/04 11:02:44;;;;;;;5.28;4.63;;;;;;;31.15;34.39;100364.78;3583805;39;20425;-45
2021/07/04 11:05:13;;;;;;;5.47;4.90;;;;;;;30.40;35.46;100355.47;3584080;39;20087;-48
2021/07/04 11:07:52;;;;;;;7.07;4.70;;;;;;;31.50;38.41;100353.69;3584034;39;20064;-49
2021/07/04 11:10:20;;;;;;;6.20;5.50;;;;;;;31.85;32.55;100350.50;3583730;39;20057;-51
2021/07/04 11:12:48;;;;;;;6.47;5.10;;;;;;;31.38;33.38;100351.84;3583278;39;20048;-45
2021/07/04 11:15:21;;;;;;;6.13;5.22;;;;;;;32.45;34.43;100355.16;3584058;39;20085;-50
2021/07/04 11:17:57;;;;;;;5.28;4.78;;;;;;;33.18;31.64;100354.25;3583981;39;20092;-45
2021/07/04 11:20:27;;;;;;;5.95;5.35;;;;;;;33.22;32.66;100354.88;3583940;39;20329;-45